^^
Saratoga-Weather Station Historical Data
Daily Summary for February 18, 2020 Units:  English    Metric   Both
Daily Weekly Monthly Yearly Custom
  High: Low: Average:
Temperature: 76.1 °F 59 °F 66 °F
Dew Point: 65.1 °F 56.8 °F 59.7 °F
Humidity: 96% 55% 82%
Wind Speed: 18mph 0mph 1.4mph
Wind Gust: 18mph - -
Wind- - West
Pressure: 29.9 in 29.8 in -
Precipitation: 0.72 in    
Historical Graphs
 
 
Tabular Data for February 18, 2020
Time Temperature Dew Point Pressure Wind Wind Speed Wind Gust Humidity Rainfall Rate (Hourly) solar
00:00 65.1 °F 58.5 °F 29.8 in Calm   1 mph 79% 0 in 0 W/m2
00:05 65.1 °F 58.5 °F 29.8 in Calm     79% 0 in 0 W/m2
00:10 65.1 °F 58.5 °F 29.8 in Calm   1 mph 79% 0 in 0 W/m2
00:15 65.1 °F 58.5 °F 29.8 in West 0.9 mph 3 mph 79% 0 in 0 W/m2
00:20 65.5 °F 58.8 °F 29.8 in Calm     79% 0 in 0 W/m2
00:25 65.7 °F 59 °F 29.9 in Calm   3 mph 79% 0 in 0 W/m2
00:30 65.7 °F 59 °F 29.9 in Calm     79% 0 in 0 W/m2
00:35 65.5 °F 59.2 °F 29.9 in Calm   1 mph 80% 0 in 0 W/m2
00:40 65.3 °F 58.6 °F 29.9 in Calm     79% 0 in 0 W/m2
00:45 65.1 °F 58.8 °F 29.9 in Calm     80% 0 in 0 W/m2
00:50 64.9 °F 58.6 °F 29.9 in West 0.9 mph 1 mph 80% 0 in 0 W/m2
00:55 64.8 °F 58.8 °F 29.9 in Calm   2 mph 81% 0 in 0 W/m2
01:00 64.6 °F 58.6 °F 29.9 in Calm   1 mph 81% 0 in 0 W/m2
01:05 64.6 °F 58.6 °F 29.9 in Calm   2 mph 81% 0 in 0 W/m2
01:10 64.6 °F 58.3 °F 29.9 in West 0.9 mph 2 mph 80% 0 in 0 W/m2
01:15 64.8 °F 58.8 °F 29.9 in Calm   1 mph 81% 0 in 0 W/m2
01:20 64.8 °F 58.5 °F 29.9 in NW 4.9 mph 8 mph 80% 0 in 0 W/m2
01:25 65.1 °F 58.5 °F 29.9 in WSW 2 mph 5 mph 79% 0 in 0 W/m2
01:30 65.5 °F 58.5 °F 29.9 in West 0.9 mph 8 mph 78% 0 in 0 W/m2
01:35 65.7 °F 58.6 °F 29.9 in West 2.9 mph 6 mph 78% 0 in 0 W/m2
01:40 65.7 °F 58.6 °F 29.9 in WNW 2.9 mph 4 mph 78% 0 in 0 W/m2
01:45 65.7 °F 58.6 °F 29.9 in WNW 2 mph 4 mph 78% 0 in 0 W/m2
01:50 65.5 °F 58.5 °F 29.8 in WSW 4 mph 5 mph 78% 0 in 0 W/m2
01:55 65.5 °F 58.5 °F 29.8 in WNW 2.9 mph 3 mph 78% 0 in 0 W/m2
02:00 65.5 °F 58.8 °F 29.8 in Calm   5 mph 79% 0 in 0 W/m2
02:05 65.1 °F 58.5 °F 29.8 in NW 0.9 mph 4 mph 79% 0 in 0 W/m2
02:10 64.9 °F 58.3 °F 29.8 in WSW 4 mph 5 mph 79% 0 in 0 W/m2
02:15 64.8 °F 58.5 °F 29.8 in WNW 0.9 mph 4 mph 80% 0 in 0 W/m2
02:20 64.6 °F 58.3 °F 29.8 in West 2.9 mph 6 mph 80% 0 in 0 W/m2
02:25 64.6 °F 58.3 °F 29.8 in WSW 2 mph 7 mph 80% 0 in 0 W/m2
02:30 64.6 °F 58.3 °F 29.8 in SW 0.9 mph 4 mph 80% 0 in 0 W/m2
02:35 64.2 °F 58.3 °F 29.8 in SW 2.9 mph 4 mph 81% 0 in 0 W/m2
02:40 64.2 °F 58.3 °F 29.8 in WNW 2 mph 3 mph 81% 0 in 0 W/m2
02:45 64 °F 58.1 °F 29.8 in West 0.9 mph 3 mph 81% 0 in 0 W/m2
02:50 64 °F 58.1 °F 29.8 in WNW 2 mph 3 mph 81% 0 in 0 W/m2
02:55 64.2 °F 58.3 °F 29.8 in West 0.9 mph 3 mph 81% 0 in 0 W/m2
03:01 64 °F 58.1 °F 29.8 in West 2.9 mph 3 mph 81% 0 in 0 W/m2
03:06 64 °F 58.1 °F 29.8 in WNW 0.9 mph 7 mph 81% 0 in 0 W/m2
03:11 64 °F 58.1 °F 29.8 in West 0.9 mph 2 mph 81% 0 in 0 W/m2
03:16 64 °F 58.1 °F 29.8 in West 2 mph 7 mph 81% 0 in 0 W/m2
03:21 64 °F 58.5 °F 29.8 in West 0.9 mph 3 mph 82% 0 in 0 W/m2
03:26 64 °F 58.5 °F 29.8 in WNW 2 mph 3 mph 82% 0 in 0 W/m2
03:31 64 °F 58.5 °F 29.8 in West 2 mph 3 mph 82% 0 in 0 W/m2
03:36 63.9 °F 58.3 °F 29.8 in West 2 mph 4 mph 82% 0 in 0 W/m2
03:41 63.9 °F 58.3 °F 29.9 in WSW 2 mph 5 mph 82% 0 in 0 W/m2
03:46 63.7 °F 58.1 °F 29.8 in WSW 2 mph 3 mph 82% 0 in 0 W/m2
03:51 63.7 °F 58.5 °F 29.8 in West 2.9 mph 4 mph 83% 0 in 0 W/m2
03:56 63.7 °F 58.5 °F 29.8 in West 2 mph 5 mph 83% 0 in 0 W/m2
04:01 63.5 °F 58.3 °F 29.8 in Calm   2 mph 83% 0 in 0 W/m2
04:06 63.3 °F 58.1 °F 29.9 in WNW 2 mph 5 mph 83% 0 in 0 W/m2
04:11 63.3 °F 58.1 °F 29.9 in SW 0.9 mph 3 mph 83% 0 in 0 W/m2
04:16 63.3 °F 58.1 °F 29.9 in West 2 mph 6 mph 83% 0 in 0 W/m2
04:21 63.3 °F 58.5 °F 29.9 in Calm   4 mph 84% 0 in 0 W/m2
04:26 63.3 °F 58.5 °F 29.9 in WNW 0.9 mph 5 mph 84% 0 in 0 W/m2
04:31 63.1 °F 58.3 °F 29.9 in WNW 2 mph 3 mph 84% 0 in 0 W/m2
04:36 63 °F 58.1 °F 29.9 in WNW 6 mph 6 mph 84% 0 in 0 W/m2
04:41 63 °F 58.5 °F 29.9 in SSW 2 mph 2 mph 85% 0 in 0 W/m2
04:46 63 °F 58.5 °F 29.9 in West 2 mph 2 mph 85% 0 in 0 W/m2
04:51 63 °F 58.5 °F 29.9 in West 2.9 mph 4 mph 85% 0 in 0 W/m2
04:56 63 °F 58.5 °F 29.9 in Calm   4 mph 85% 0 in 0 W/m2
05:01 62.8 °F 58.3 °F 29.9 in West 2 mph 3 mph 85% 0 in 0 W/m2
05:06 62.8 °F 58.3 °F 29.9 in West 0.9 mph 4 mph 85% 0 in 0 W/m2
05:11 62.8 °F 58.3 °F 29.9 in West 2.9 mph 3 mph 85% 0 in 0 W/m2
05:16 62.8 °F 58.3 °F 29.9 in West 2 mph 4 mph 85% 0 in 0 W/m2
05:21 62.8 °F 58.3 °F 29.9 in WSW 2 mph 4 mph 85% 0 in 0 W/m2
05:26 62.8 °F 58.3 °F 29.9 in WSW 0.9 mph 4 mph 85% 0 in 0 W/m2
05:31 62.8 °F 58.3 °F 29.9 in SW 2.9 mph 4 mph 85% 0 in 0 W/m2
05:36 62.8 °F 58.3 °F 29.8 in WNW 0.9 mph 3 mph 85% 0 in 0 W/m2
05:42 62.8 °F 58.3 °F 29.8 in Calm   4 mph 85% 0 in 0 W/m2
05:47 62.6 °F 58.1 °F 29.8 in NW 0.9 mph 2 mph 85% 0 in 0 W/m2
05:52 62.4 °F 57.9 °F 29.8 in WNW 2 mph 4 mph 85% 0 in 0 W/m2
05:57 62.4 °F 57.9 °F 29.8 in WNW 0.9 mph 2 mph 85% 0 in 0 W/m2
06:02 62.2 °F 57.9 °F 29.8 in West 2 mph 4 mph 86% 0 in 0 W/m2
06:07 62.2 °F 57.9 °F 29.8 in West 0.9 mph 2 mph 86% 0 in 0 W/m2
06:12 62.2 °F 57.9 °F 29.8 in WSW 2 mph 2 mph 86% 0 in 0 W/m2
06:17 62.1 °F 57.7 °F 29.8 in West 2.9 mph 3 mph 86% 0 in 0 W/m2
06:22 62.1 °F 57.7 °F 29.8 in Calm   1 mph 86% 0 in 0 W/m2
06:27 62.1 °F 57.7 °F 29.8 in Calm   3 mph 86% 0 in 0 W/m2
06:33 61.9 °F 57.6 °F 29.8 in Calm   1 mph 86% 0 in 0 W/m2
06:38 61.9 °F 57.6 °F 29.8 in NW 0.9 mph 1 mph 86% 0 in 0 W/m2
06:43 61.7 °F 57.7 °F 29.9 in Calm   1 mph 87% 0 in 5 W/m2
06:48 61.5 °F 57.6 °F 29.9 in Calm   1 mph 87% 0 in 7 W/m2
06:53 61.3 °F 57.4 °F 29.9 in Calm     87% 0 in 9 W/m2
06:58 61.2 °F 57.2 °F 29.9 in Calm   2 mph 87% 0 in 11 W/m2
07:03 61 °F 57.4 °F 29.9 in Calm   2 mph 88% 0 in 11 W/m2
07:08 60.6 °F 57 °F 29.9 in NW 0.9 mph 2 mph 88% 0 in 12 W/m2
07:13 60.4 °F 57.2 °F 29.9 in Calm     89% 0 in 11 W/m2
07:18 60.4 °F 57.2 °F 29.9 in Calm   2 mph 89% 0 in 12 W/m2
07:23 60.3 °F 57 °F 29.9 in Calm     89% 0 in 14 W/m2
07:28 60.3 °F 57.4 °F 29.9 in Calm     90% 0 in 19 W/m2
07:33 60.3 °F 57.4 °F 29.9 in NW 2 mph 2 mph 90% 0 in 21 W/m2
07:38 60.6 °F 57.7 °F 29.9 in West 2 mph 6 mph 90% 0 in 21 W/m2
07:43 61 °F 58.1 °F 29.9 in WNW 2.9 mph 7 mph 90% 0 in 23 W/m2
07:48 61.3 °F 58.1 °F 29.9 in West 2 mph 4 mph 89% 0 in 33 W/m2
07:53 61.7 °F 58.5 °F 29.9 in WNW 2 mph 3 mph 89% 0 in 37 W/m2
07:58 62.2 °F 58.6 °F 29.9 in NNW 0.9 mph 4 mph 88% 0 in 39 W/m2
08:03 62.4 °F 58.5 °F 29.9 in NE 0.9 mph 2 mph 87% 0 in 39 W/m2
08:08 62.6 °F 58.6 °F 29.9 in Calm   1 mph 87% 0 in 42 W/m2
08:13 63 °F 59 °F 29.9 in NE 0.9 mph 2 mph 87% 0 in 42 W/m2
08:18 63.3 °F 59 °F 29.9 in NNW 0.9 mph 1 mph 86% 0 in 44 W/m2
08:23 64 °F 59.4 °F 29.9 in NNW 0.9 mph 2 mph 85% 0 in 47 W/m2
08:28 64.4 °F 59.5 °F 29.9 in WNW 0.9 mph 6 mph 84% 0 in 51 W/m2
08:33 64.8 °F 59.5 °F 29.9 in ENE 2 mph 3 mph 83% 0 in 62 W/m2
08:38 65.1 °F 59.9 °F 29.9 in NNW 2 mph 6 mph 83% 0 in 63 W/m2
08:43 65.7 °F 60.1 °F 29.9 in NW 2 mph 4 mph 82% 0 in 56 W/m2
08:49 65.8 °F 59.9 °F 29.9 in WNW 4 mph 7 mph 81% 0 in 174 W/m2
08:54 66 °F 60.1 °F 29.9 in NW 2 mph 4 mph 81% 0 in 267 W/m2
08:59 66 °F 60.1 °F 29.9 in WNW 0.9 mph 2 mph 81% 0 in 276 W/m2
09:04 66.4 °F 60.1 °F 29.9 in NW 2 mph 5 mph 80% 0 in 279 W/m2
09:09 66.4 °F 60.1 °F 29.9 in NW 2.9 mph 4 mph 80% 0 in 313 W/m2
09:19 67.1 °F 60.8 °F 29.9 in Calm   1 mph 80% 0 in 186 W/m2
09:24 67.3 °F 60.6 °F 29.9 in WNW 2 mph 4 mph 79% 0 in 339 W/m2
09:29 67.3 °F 60.6 °F 29.9 in SW 0.9 mph 7 mph 79% 0 in 383 W/m2
09:34 67.5 °F 60.8 °F 29.9 in Calm   2 mph 79% 0 in 70 W/m2
09:39 67.8 °F 60.6 °F 29.9 in ESE 4 mph 4 mph 78% 0 in 137 W/m2
09:44 68 °F 60.4 °F 29.9 in ESE 2 mph 4 mph 77% 0 in 186 W/m2
09:49 68.2 °F 60.3 °F 29.9 in North 2 mph 3 mph 76% 0 in 130 W/m2
09:54 68.2 °F 60.3 °F 29.9 in NNW 2 mph 2 mph 76% 0 in 431 W/m2
09:59 68.2 °F 59.5 °F 29.9 in Calm   2 mph 74% 0 in 339 W/m2
10:04 68.5 °F 59.9 °F 29.9 in Calm   1 mph 74% 0 in 250 W/m2
10:09 69.1 °F 60.1 °F 29.9 in Calm   1 mph 73% 0 in 197 W/m2
10:14 69.3 °F 59.9 °F 29.9 in Calm   2 mph 72% 0 in 162 W/m2
10:19 69.6 °F 60.6 °F 29.9 in NE 0.9 mph 1 mph 73% 0 in 162 W/m2
10:25 69.6 °F 61 °F 29.9 in ENE 2.9 mph 4 mph 74% 0 in 160 W/m2
10:30 69.6 °F 60.6 °F 29.9 in East 0.9 mph 3 mph 73% 0 in 288 W/m2
10:35 70 °F 60.6 °F 29.9 in North 0.9 mph 2 mph 72% 0 in 311 W/m2
10:40 70 °F 60.6 °F 29.9 in NW 0.9 mph 2 mph 72% 0 in 360 W/m2
10:45 70.2 °F 60.3 °F 29.9 in NNW 0.9 mph 3 mph 71% 0 in 330 W/m2
10:50 70.2 °F 60.3 °F 29.9 in Calm   2 mph 71% 0 in 318 W/m2
10:55 70.3 °F 59.7 °F 29.9 in West 2.9 mph 5 mph 69% 0 in 294 W/m2
11:00 70.9 °F 60.3 °F 29.9 in Calm   2 mph 69% 0 in 281 W/m2
11:05 71.2 °F 59.7 °F 29.9 in WNW 0.9 mph 5 mph 67% 0 in 295 W/m2
11:10 71.4 °F 59.9 °F 29.9 in WSW 2.9 mph 7 mph 67% 0 in 299 W/m2
11:15 71.2 °F 60.6 °F 29.9 in NW 0.9 mph 2 mph 69% 0 in 360 W/m2
11:20 71.2 °F 59.7 °F 29.9 in West 2.9 mph 4 mph 67% 0 in 355 W/m2
11:25 71.2 °F 60.1 °F 29.9 in WNW 0.9 mph 4 mph 68% 0 in 353 W/m2
11:30 71.4 °F 60.3 °F 29.9 in NW 2.9 mph 5 mph 68% 0 in 301 W/m2
11:35 71.2 °F 60.6 °F 29.9 in NW 2 mph 4 mph 69% 0 in 206 W/m2
11:40 71.2 °F 60.6 °F 29.9 in NNW 2 mph 4 mph 69% 0 in 207 W/m2
11:45 71.2 °F 60.6 °F 29.9 in West 2 mph 4 mph 69% 0 in 733 W/m2
11:50 71.8 °F 60.3 °F 29.9 in WNW 4.9 mph 6 mph 67% 0 in 777 W/m2
11:55 72 °F 59.5 °F 29.9 in WSW 2 mph 3 mph 65% 0 in 749 W/m2
12:00 71.8 °F 59.4 °F 29.9 in Calm   1 mph 65% 0 in 204 W/m2
12:05 72.1 °F 59.7 °F 29.9 in Calm   2 mph 65% 0 in 838 W/m2
12:10 72.9 °F 59.9 °F 29.9 in South 0.9 mph 3 mph 64% 0 in 812 W/m2
12:15 73.2 °F 59.4 °F 29.9 in NNW 2.9 mph 3 mph 62% 0 in 923 W/m2
12:20 73.4 °F 59.2 °F 29.9 in West 6.9 mph 9 mph 61% 0 in 338 W/m2
12:25 73.2 °F 58.5 °F 29.9 in WNW 2 mph 4 mph 60% 0 in 308 W/m2
12:30 73.4 °F 58.3 °F 29.9 in WNW 4 mph 6 mph 59% 0 in 313 W/m2
12:35 73.4 °F 59.2 °F 29.9 in East 0.9 mph 3 mph 61% 0 in 329 W/m2
12:40 73.8 °F 58.5 °F 29.9 in West 8.9 mph 9 mph 59% 0 in 381 W/m2
12:45 73.9 °F 58.3 °F 29.9 in NW 2.9 mph 7 mph 58% 0 in 446 W/m2
12:50 74.5 °F 58.3 °F 29.9 in West 2 mph 7 mph 57% 0 in 311 W/m2
12:55 74.1 °F 58.5 °F 29.9 in WSW 2 mph 9 mph 58% 0 in 190 W/m2
13:00 73.9 °F 58.6 °F 29.9 in ESE 0.9 mph 4 mph 59% 0 in 160 W/m2
13:05 73.8 °F 58.5 °F 29.9 in West 4 mph 6 mph 59% 0 in 278 W/m2
13:10 73.6 °F 58.8 °F 29.9 in WNW 2.9 mph 7 mph 60% 0 in 329 W/m2
13:15 73.8 °F 59.5 °F 29.9 in West 6.9 mph 8 mph 61% 0 in 285 W/m2
13:20 73.8 °F 59 °F 29.8 in NNW 2 mph 3 mph 60% 0 in 309 W/m2
13:25 73.9 °F 58.6 °F 29.8 in North 2 mph 8 mph 59% 0 in 309 W/m2
13:30 74.8 °F 59.5 °F 29.8 in Calm   4 mph 59% 0 in 668 W/m2
13:35 75.7 °F 59.4 °F 29.8 in WNW 2.9 mph 3 mph 57% 0 in 875 W/m2
13:40 76.1 °F 58.8 °F 29.8 in West 2.9 mph 6 mph 55% 0 in 919 W/m2
13:45 75.6 °F 58.3 °F 29.8 in NE 0.9 mph 2 mph 55% 0 in 183 W/m2
13:50 75.4 °F 58.1 °F 29.8 in North 0.9 mph 6 mph 55% 0 in 137 W/m2
13:55 75 °F 58.3 °F 29.8 in West 2.9 mph 3 mph 56% 0 in 127 W/m2
14:00 74.8 °F 59 °F 29.8 in North 2 mph 3 mph 58% 0 in 116 W/m2
14:05 74.5 °F 58.8 °F 29.8 in Calm   1 mph 58% 0 in 104 W/m2
14:10 74.5 °F 59.2 °F 29.8 in WNW 0.9 mph 3 mph 59% 0 in 77 W/m2
14:15 74.5 °F 58.8 °F 29.8 in WNW 2 mph 4 mph 58% 0 in 72 W/m2
14:20 74.1 °F 61.2 °F 29.8 in Calm   1 mph 64% 0 in 84 W/m2
14:25 73.8 °F 60.8 °F 29.8 in Calm   4 mph 64% 0 in 98 W/m2
14:30 73.6 °F 60.6 °F 29.8 in Calm   1 mph 64% 0 in 86 W/m2
14:35 73.4 °F 59.5 °F 29.8 in WNW 0.9 mph 4 mph 62% 0 in 109 W/m2
14:40 73 °F 60.1 °F 29.8 in NW 2 mph 7 mph 64% 0 in 128 W/m2
14:45 72.5 °F 61.7 °F 29.8 in West 2.9 mph 4 mph 69% 0 in 118 W/m2
14:50 71.8 °F 61 °F 29.8 in NW 2 mph 2 mph 69% 0 in 102 W/m2
14:55 71.2 °F 61.7 °F 29.8 in WNW 2 mph 4 mph 72% 0.01 in 88 W/m2
15:00 70.3 °F 61.7 °F 29.8 in NNW 0.9 mph 4 mph 74% 0.02 in 95 W/m2
15:05 69.4 °F 62.2 °F 29.8 in WNW 2 mph 7 mph 78% 0.02 in 127 W/m2
15:10 68.7 °F 62.6 °F 29.8 in West 4 mph 8 mph 81% 0.02 in 285 W/m2
15:15 68.5 °F 63.1 °F 29.8 in WNW 2 mph 3 mph 83% 0.02 in 327 W/m2
15:20 69.1 °F 63.7 °F 29.8 in NW 2.9 mph 8 mph 83% 0.02 in 947 W/m2
15:25 70 °F 64.6 °F 29.8 in NW 2 mph 4 mph 83% 0.02 in 884 W/m2
15:30 71.2 °F 64.4 °F 29.8 in NW 6 mph 6 mph 79% 0.02 in 786 W/m2
15:35 72.1 °F 64.6 °F 29.8 in WNW 2 mph 4 mph 77% 0.02 in 800 W/m2
15:40 72.7 °F 63.9 °F 29.8 in North 2.9 mph 4 mph 74% 0.02 in 327 W/m2
15:45 72.9 °F 63.7 °F 29.8 in NW 0.9 mph 5 mph 73% 0.02 in 258 W/m2
15:50 72.9 °F 64.4 °F 29.8 in WSW 0.9 mph 3 mph 75% 0.02 in 188 W/m2
15:55 72.7 °F 64.2 °F 29.8 in WSW 0.9 mph 3 mph 75% 0.02 in 183 W/m2
16:00 72.3 °F 63.5 °F 29.8 in NNW 0.9 mph 3 mph 74% 0.01 in 209 W/m2
16:05 72.3 °F 63.5 °F 29.8 in West 2 mph 2 mph 74% 0.01 in 232 W/m2
16:10 72.1 °F 63.3 °F 29.8 in WNW 0.9 mph 4 mph 74% 0 in 148 W/m2
16:15 72.1 °F 63.3 °F 29.8 in West 2.9 mph 4 mph 74% 0 in 162 W/m2
16:20 72 °F 64.4 °F 29.8 in West 2.9 mph 4 mph 77% 0 in 186 W/m2
16:25 72.1 °F 64.9 °F 29.8 in WNW 2.9 mph 5 mph 78% 0 in 802 W/m2
16:30 72 °F 64.4 °F 29.8 in North 4 mph 8 mph 77% 0 in 281 W/m2
16:35 71.4 °F 63.5 °F 29.8 in NW 4.9 mph 8 mph 76% 0 in 148 W/m2
16:41 70.9 °F 62.2 °F 29.8 in WSW 2.9 mph 7 mph 74% 0 in 121 W/m2
16:46 70 °F 60.6 °F 29.8 in WNW 2.9 mph 5 mph 72% 0 in 90 W/m2
16:51 69.4 °F 60.1 °F 29.8 in WSW 4 mph 6 mph 72% 0 in 49 W/m2
16:56 69.3 °F 60.6 °F 29.8 in WNW 4 mph 4 mph 74% 0 in 30 W/m2
17:01 68.9 °F 60.6 °F 29.8 in West 6 mph 10 mph 75% 0 in 14 W/m2
17:06 68.2 °F 59.2 °F 29.8 in West 13 mph 14 mph 73% 0.02 in 7 W/m2
17:11 65.7 °F 59.4 °F 29.8 in WNW 18 mph 18 mph 80% 0.11 in 7 W/m2
17:16 62.1 °F 57.6 °F 29.9 in NW 11 mph 16 mph 85% 0.37 in 9 W/m2
17:21 61 °F 56.8 °F 29.9 in SW 4.9 mph 9 mph 86% 0.61 in 26 W/m2
17:26 60.6 °F 57.4 °F 29.8 in Calm   3 mph 89% 0.69 in 109 W/m2
17:31 60.4 °F 57.7 °F 29.8 in SSW 0.9 mph 2 mph 91% 0.69 in 162 W/m2
17:36 61.2 °F 59.2 °F 29.8 in SSW 0.9 mph 3 mph 93% 0.69 in 221 W/m2
17:41 61.5 °F 59.5 °F 29.8 in SSE 0.9 mph 3 mph 93% 0.69 in 255 W/m2
17:46 62.1 °F 60.3 °F 29.8 in Calm     94% 0.69 in 251 W/m2
17:51 62.6 °F 60.8 °F 29.8 in Calm   2 mph 94% 0.69 in 255 W/m2
17:56 63 °F 61.2 °F 29.8 in Calm   1 mph 94% 0.69 in 290 W/m2
18:01 63.7 °F 62.2 °F 29.8 in Calm     95% 0.69 in 185 W/m2
18:06 64 °F 62.6 °F 29.8 in WSW 2 mph 2 mph 95% 0.68 in 144 W/m2
18:11 64 °F 62.2 °F 29.8 in Calm     94% 0.55 in 125 W/m2
18:16 63.9 °F 62.1 °F 29.8 in WSW 0.9 mph 2 mph 94% 0.31 in 118 W/m2
18:21 63.9 °F 62.1 °F 29.8 in SW 0.9 mph 1 mph 94% 0.06 in 104 W/m2
18:26 63.7 °F 61.9 °F 29.8 in Calm   2 mph 94% 0.01 in 109 W/m2
18:31 63.9 °F 62.1 °F 29.8 in SW 0.9 mph 1 mph 94% 0 in 107 W/m2
18:37 63.9 °F 62.1 °F 29.8 in SW 0.9 mph 2 mph 94% 0 in 135 W/m2
18:42 64 °F 62.2 °F 29.8 in Calm   1 mph 94% 0 in 156 W/m2
18:47 64.6 °F 63.1 °F 29.8 in Calm     95% 0 in 269 W/m2
18:52 64.9 °F 63.5 °F 29.8 in SW 2 mph 2 mph 95% 0 in 378 W/m2
18:57 65.1 °F 63.3 °F 29.8 in West 0.9 mph 2 mph 94% 0 in 339 W/m2
19:02 65.5 °F 63.7 °F 29.8 in West 0.9 mph 2 mph 94% 0 in 315 W/m2
19:07 65.7 °F 63.9 °F 29.8 in West 0.9 mph 2 mph 94% 0 in 165 W/m2
19:12 66.2 °F 64.4 °F 29.8 in Calm     94% 0 in 156 W/m2
19:17 66.6 °F 64.8 °F 29.8 in Calm     94% 0 in 192 W/m2
19:22 66.9 °F 65.1 °F 29.8 in West 0.9 mph 2 mph 94% 0 in 174 W/m2
19:27 66.7 °F 64.6 °F 29.8 in Calm   1 mph 93% 0 in 156 W/m2
19:32 66.7 °F 64.6 °F 29.8 in Calm     93% 0 in 135 W/m2
19:37 66.7 °F 64.6 °F 29.8 in Calm     93% 0 in 107 W/m2
19:42 66.7 °F 64.6 °F 29.8 in Calm     93% 0 in 97 W/m2
19:47 66.6 °F 64.4 °F 29.8 in Calm   1 mph 93% 0 in 88 W/m2
19:52 66.6 °F 64.4 °F 29.8 in SW 0.9 mph 1 mph 93% 0 in 84 W/m2
19:57 66.4 °F 64.2 °F 29.8 in Calm   2 mph 93% 0 in 77 W/m2
20:02 66.4 °F 64.2 °F 29.8 in Calm   1 mph 93% 0 in 69 W/m2
20:07 66 °F 63.9 °F 29.8 in South 0.9 mph 2 mph 93% 0 in 25 W/m2
20:12 65.8 °F 63.7 °F 29.8 in Calm     93% 0 in 23 W/m2
20:17 65.7 °F 63.3 °F 29.8 in Calm   2 mph 92% 0 in 18 W/m2
20:22 65.5 °F 63.3 °F 29.8 in Calm     93% 0 in 14 W/m2
20:27 65.1 °F 63 °F 29.8 in Calm     93% 0 in 12 W/m2
20:32 64.8 °F 62.4 °F 29.8 in Calm     92% 0 in 9 W/m2
20:38 64.4 °F 62.4 °F 29.8 in South 0.9 mph 2 mph 93% 0 in 7 W/m2
20:43 64 °F 62.1 °F 29.8 in Calm     93% 0 in 5 W/m2
20:48 63.7 °F 61.7 °F 29.8 in South 0.9 mph 1 mph 93% 0 in 0 W/m2
20:53 63.3 °F 61.3 °F 29.8 in Calm   1 mph 93% 0 in 0 W/m2
20:58 63.1 °F 61.2 °F 29.8 in Calm     93% 0 in 0 W/m2
21:03 63 °F 61 °F 29.8 in Calm   1 mph 93% 0 in 0 W/m2
21:08 62.8 °F 61 °F 29.8 in Calm     94% 0 in 0 W/m2
21:13 62.4 °F 60.6 °F 29.9 in Calm     94% 0 in 0 W/m2
21:18 62.2 °F 60.4 °F 29.9 in Calm     94% 0 in 0 W/m2
21:23 62.1 °F 60.3 °F 29.9 in Calm     94% 0 in 0 W/m2
21:28 61.9 °F 60.1 °F 29.9 in Calm     94% 0 in 0 W/m2
21:33 61.9 °F 60.1 °F 29.9 in Calm     94% 0 in 0 W/m2
21:38 61.5 °F 59.7 °F 29.9 in Calm     94% 0 in 0 W/m2
21:43 61.3 °F 59.5 °F 29.9 in Calm     94% 0 in 0 W/m2
21:48 61.2 °F 59.4 °F 29.9 in Calm     94% 0 in 0 W/m2
21:53 60.6 °F 58.8 °F 29.9 in Calm     94% 0 in 0 W/m2
21:58 60.3 °F 58.5 °F 29.9 in Calm     94% 0 in 0 W/m2
22:03 59.9 °F 58.1 °F 29.9 in Calm     94% 0 in 0 W/m2
22:08 59.5 °F 57.7 °F 29.9 in Calm     94% 0 in 0 W/m2
22:13 59.5 °F 58.1 °F 29.9 in Calm     95% 0 in 0 W/m2
22:18 59.4 °F 57.6 °F 29.9 in Calm     94% 0 in 0 W/m2
22:23 59.4 °F 57.9 °F 29.9 in Calm     95% 0 in 0 W/m2
22:28 59.4 °F 57.9 °F 29.9 in Calm     95% 0 in 0 W/m2
22:33 59.2 °F 57.7 °F 29.9 in Calm     95% 0 in 0 W/m2
22:38 59.2 °F 57.7 °F 29.9 in Calm     95% 0 in 0 W/m2
22:43 59 °F 57.6 °F 29.9 in Calm     95% 0 in 0 W/m2
22:48 59 °F 57.6 °F 29.9 in South 0.9 mph 2 mph 95% 0 in 0 W/m2
22:53 59 °F 57.6 °F 29.9 in Calm     95% 0 in 0 W/m2
22:58 59 °F 57.9 °F 29.9 in Calm   2 mph 96% 0 in 0 W/m2
23:03 59 °F 57.9 °F 29.9 in Calm     96% 0 in 0 W/m2
23:08 59.2 °F 57.7 °F 29.9 in Calm     95% 0 in 0 W/m2
23:13 59.2 °F 58.1 °F 29.9 in Calm     96% 0 in 0 W/m2
23:18 59.4 °F 58.3 °F 29.9 in Calm     96% 0 in 0 W/m2
23:23 59.4 °F 58.3 °F 29.9 in Calm     96% 0 in 0 W/m2
23:28 59.4 °F 58.3 °F 29.9 in Calm     96% 0 in 0 W/m2
23:33 59.4 °F 58.3 °F 29.9 in Calm   1 mph 96% 0 in 0 W/m2
23:38 59.5 °F 58.5 °F 29.9 in Calm     96% 0 in 0 W/m2
23:44 59.4 °F 58.3 °F 29.9 in Calm   1 mph 96% 0 in 0 W/m2
23:49 59.4 °F 58.3 °F 29.9 in Calm     96% 0 in 0 W/m2
23:54 59.2 °F 58.1 °F 29.9 in Calm     96% 0 in 0 W/m2
23:59 59.2 °F 58.1 °F 29.9 in Calm     96% 0 in 0 W/m2
Juneau County Weather
Compliments of Weather Underground - 4 mb